createdAt,value
2023-08-20T00:01:26.035Z,6.30
2023-08-20T00:03:54.973Z,5.60
2023-08-20T00:06:24.229Z,6.35
2023-08-20T00:08:52.434Z,6.30
2023-08-20T00:11:21.484Z,5.88
2023-08-20T00:13:49.223Z,7.22
2023-08-20T00:16:17.308Z,6.85
2023-08-20T00:18:45.513Z,6.68
2023-08-20T00:21:13.695Z,7.55
2023-08-20T00:23:41.953Z,6.53
2023-08-20T00:26:10.253Z,7.05
2023-08-20T00:28:39.832Z,6.10
2023-08-20T00:31:07.555Z,6.53
2023-08-20T00:33:35.297Z,5.47
2023-08-20T00:36:03.570Z,5.95
2023-08-20T00:38:31.462Z,5.85
2023-08-20T00:40:59.173Z,5.07
2023-08-20T00:43:26.894Z,6.22
2023-08-20T00:45:55.967Z,5.40
2023-08-20T00:48:23.770Z,5.63
2023-08-20T00:50:51.557Z,5.57
2023-08-20T00:53:20.015Z,5.50
2023-08-20T00:55:47.957Z,5.93
2023-08-20T00:58:16.625Z,4.95
2023-08-20T01:00:44.356Z,5.15
2023-08-20T01:03:13.423Z,5.18
2023-08-20T01:05:48.974Z,5.13
2023-08-20T01:08:29.433Z,5.45
2023-08-20T01:11:03.106Z,5.20
2023-08-20T01:13:30.775Z,5.28
2023-08-20T01:15:58.476Z,5.25
2023-08-20T01:18:27.803Z,5.40
2023-08-20T01:21:00.424Z,5.20
2023-08-20T01:23:50.282Z,4.75
2023-08-20T01:26:30.685Z,4.80
2023-08-20T01:28:59.969Z,4.28
2023-08-20T01:31:29.018Z,4.15
2023-08-20T01:33:58.639Z,4.28
2023-08-20T01:36:26.772Z,3.50
2023-08-20T01:38:54.410Z,4.20
2023-08-20T01:41:22.100Z,4.20
2023-08-20T01:43:49.825Z,4.00
2023-08-20T01:46:18.882Z,4.20
2023-08-20T01:48:46.636Z,4.07
2023-08-20T01:51:14.513Z,4.55
2023-08-20T01:53:42.181Z,4.18
2023-08-20T01:56:13.372Z,4.05
2023-08-20T01:58:41.489Z,4.55
2023-08-20T02:01:09.261Z,4.40
2023-08-20T02:03:39.038Z,4.28
2023-08-20T02:06:06.916Z,4.30
2023-08-20T02:08:34.658Z,4.28
2023-08-20T02:11:03.661Z,3.95
2023-08-20T02:13:31.460Z,3.95
2023-08-20T02:16:03.048Z,3.70
2023-08-20T02:18:30.925Z,3.60
2023-08-20T02:21:00.252Z,3.90
2023-08-20T02:23:28.031Z,4.32
2023-08-20T02:25:55.811Z,4.18
2023-08-20T02:28:23.910Z,3.88
2023-08-20T02:30:51.604Z,3.95
2023-08-20T02:33:19.388Z,4.20
2023-08-20T02:35:47.114Z,4.50
2023-08-20T02:38:16.253Z,4.18
2023-08-20T02:40:44.087Z,5.07
2023-08-20T02:43:11.806Z,5.32
2023-08-20T02:45:44.164Z,6.40
2023-08-20T02:48:12.152Z,6.72
2023-08-20T02:50:39.944Z,6.90
2023-08-20T02:53:07.794Z,7.53
2023-08-20T02:55:37.132Z,8.23
2023-08-20T02:58:05.157Z,8.00
2023-08-20T03:00:32.948Z,10.05
2023-08-20T03:03:00.672Z,8.55
2023-08-20T03:05:28.659Z,9.40
2023-08-20T03:07:56.372Z,9.73
2023-08-20T03:10:24.064Z,9.50
2023-08-20T03:12:53.116Z,6.90
2023-08-20T03:15:21.052Z,8.10
2023-08-20T03:17:48.834Z,6.53
2023-08-20T03:20:16.745Z,8.82
2023-08-20T03:22:44.417Z,8.20
2023-08-20T03:25:12.160Z,8.73
2023-08-20T03:27:39.884Z,9.48
2023-08-20T03:30:09.922Z,8.20
2023-08-20T03:32:37.598Z,9.27
2023-08-20T03:35:06.067Z,11.80
2023-08-20T03:37:34.133Z,10.40
2023-08-20T03:40:02.022Z,10.57
2023-08-20T03:42:29.730Z,10.90
2023-08-20T03:44:57.404Z,11.52
2023-08-20T03:47:26.560Z,11.27
2023-08-20T03:49:54.431Z,11.35
2023-08-20T03:52:22.120Z,10.50
2023-08-20T03:54:51.278Z,9.50
2023-08-20T03:57:18.985Z,11.63
2023-08-20T03:59:47.407Z,11.48
2023-08-20T04:02:15.624Z,12.55
2023-08-20T04:04:44.662Z,9.63
2023-08-20T04:07:12.308Z,11.75
2023-08-20T04:09:40.726Z,11.38
2023-08-20T04:12:09.033Z,11.32
2023-08-20T04:14:36.774Z,12.60
2023-08-20T04:17:04.498Z,11.18
2023-08-20T04:19:32.183Z,11.23
2023-08-20T04:22:01.207Z,11.57
2023-08-20T04:24:29.004Z,11.93
2023-08-20T04:26:56.776Z,10.10
2023-08-20T04:29:24.458Z,9.50
2023-08-20T04:31:52.136Z,10.88
2023-08-20T04:34:19.808Z,11.70
2023-08-20T04:36:47.592Z,11.85
2023-08-20T04:39:16.570Z,9.80
2023-08-20T04:41:44.261Z,12.13
2023-08-20T04:44:12.074Z,9.50
2023-08-20T04:46:39.770Z,11.77
2023-08-20T04:49:07.642Z,9.82
2023-08-20T04:51:35.314Z,12.10
2023-08-20T04:54:02.977Z,11.68
2023-08-20T04:56:32.036Z,12.43
2023-08-20T04:58:59.708Z,11.25
2023-08-20T05:01:27.460Z,12.45
2023-08-20T05:03:55.168Z,12.18
2023-08-20T05:06:22.877Z,12.55
2023-08-20T05:08:50.516Z,9.27
2023-08-20T05:11:18.189Z,11.68
2023-08-20T05:13:47.740Z,11.18
2023-08-20T05:16:15.441Z,13.57
2023-08-20T05:18:43.133Z,12.65
2023-08-20T05:21:14.432Z,11.50
2023-08-20T05:23:42.305Z,11.85
2023-08-20T05:26:10.235Z,10.45
2023-08-20T05:28:37.900Z,10.98
2023-08-20T05:31:06.951Z,10.27
2023-08-20T05:33:34.872Z,8.90
2023-08-20T05:36:02.567Z,8.63
2023-08-20T05:38:30.248Z,6.55
2023-08-20T05:40:57.902Z,6.80
2023-08-20T05:43:25.576Z,5.25
2023-08-20T05:45:53.273Z,3.92
2023-08-20T05:48:22.311Z,4.53
2023-08-20T05:50:49.989Z,4.57
2023-08-20T05:53:17.636Z,5.03
2023-08-20T05:55:45.306Z,4.40
2023-08-20T05:58:13.154Z,4.90
2023-08-20T06:00:41.029Z,7.35
2023-08-20T06:03:08.987Z,5.55
2023-08-20T06:05:38.139Z,6.90
2023-08-20T06:08:06.605Z,7.57
2023-08-20T06:10:34.273Z,7.22
2023-08-20T06:13:01.975Z,9.18
2023-08-20T06:15:29.679Z,8.43
2023-08-20T06:17:57.388Z,8.25
2023-08-20T06:20:25.092Z,11.32
2023-08-20T06:22:54.109Z,7.90
2023-08-20T06:25:21.847Z,8.90
2023-08-20T06:27:49.542Z,8.98
2023-08-20T06:30:17.281Z,9.10
2023-08-20T06:32:46.595Z,11.00
2023-08-20T06:35:14.284Z,10.23
2023-08-20T06:37:42.198Z,9.02
2023-08-20T06:40:12.241Z,10.40
2023-08-20T06:42:40.947Z,9.25
2023-08-20T06:45:10.342Z,8.93
2023-08-20T06:47:38.459Z,8.45
2023-08-20T06:50:08.021Z,6.78
2023-08-20T06:52:35.731Z,8.27
2023-08-20T06:55:03.535Z,6.10
2023-08-20T06:57:32.787Z,7.50
2023-08-20T07:00:00.634Z,8.50
2023-08-20T07:02:28.376Z,8.40
2023-08-20T07:04:56.099Z,8.00
2023-08-20T07:07:24.283Z,8.57
2023-08-20T07:09:51.947Z,5.97
2023-08-20T07:12:19.621Z,7.20
2023-08-20T07:14:48.610Z,6.10
2023-08-20T07:17:16.267Z,7.55
2023-08-20T07:19:43.980Z,7.20
2023-08-20T07:22:11.643Z,6.72
2023-08-20T07:24:39.366Z,6.93
2023-08-20T07:27:12.182Z,7.30
2023-08-20T07:29:39.915Z,7.68
2023-08-20T07:32:09.104Z,6.95
2023-08-20T07:34:36.757Z,6.60
2023-08-20T07:37:06.050Z,7.68
2023-08-20T07:39:33.743Z,5.88
2023-08-20T07:42:01.467Z,5.28
2023-08-20T07:44:29.483Z,5.30
2023-08-20T07:46:57.186Z,4.57
2023-08-20T07:49:26.287Z,5.38
2023-08-20T07:51:55.532Z,3.90
2023-08-20T07:54:23.274Z,4.55
2023-08-20T07:56:50.926Z,3.38
2023-08-20T07:59:18.570Z,3.53
2023-08-20T08:01:46.343Z,3.30
2023-08-20T08:04:14.032Z,4.45
2023-08-20T08:06:43.098Z,3.50
2023-08-20T08:09:20.218Z,3.65
2023-08-20T08:11:47.884Z,3.13
2023-08-20T08:14:15.671Z,3.63
2023-08-20T08:16:43.368Z,3.13
2023-08-20T08:19:11.073Z,3.40
2023-08-20T08:21:38.846Z,2.78
2023-08-20T08:24:08.191Z,2.78
2023-08-20T08:26:36.664Z,2.58
2023-08-20T08:29:04.808Z,2.30
2023-08-20T08:31:32.660Z,2.58
2023-08-20T08:34:00.425Z,2.95
2023-08-20T08:36:28.066Z,2.88
2023-08-20T08:38:56.981Z,2.78
2023-08-20T08:41:28.115Z,2.90
2023-08-20T08:43:57.339Z,2.60
2023-08-20T08:46:26.386Z,2.80
2023-08-20T08:48:54.745Z,2.92
2023-08-20T08:51:22.444Z,3.03
2023-08-20T08:53:50.151Z,2.50
2023-08-20T08:56:17.787Z,2.60
2023-08-20T08:58:46.999Z,3.08
2023-08-20T09:01:15.588Z,3.20
2023-08-20T09:03:43.740Z,2.88
2023-08-20T09:06:12.122Z,3.17
2023-08-20T09:08:40.234Z,2.90
2023-08-20T09:11:07.971Z,3.22
2023-08-20T09:13:37.434Z,3.30
2023-08-20T09:16:07.784Z,3.67
2023-08-20T09:18:40.326Z,3.22
2023-08-20T09:21:09.504Z,3.90
2023-08-20T09:23:37.387Z,3.70
2023-08-20T09:26:06.269Z,4.00
2023-08-20T09:28:43.187Z,3.58
2023-08-20T09:31:12.316Z,3.20
2023-08-20T09:33:51.694Z,3.38
2023-08-20T09:36:20.377Z,3.55
2023-08-20T09:38:50.605Z,2.90
2023-08-20T09:41:19.735Z,3.50
2023-08-20T09:43:50.725Z,3.33
2023-08-20T09:46:22.496Z,3.17
2023-08-20T09:48:52.788Z,3.67
2023-08-20T09:51:23.885Z,3.47
2023-08-20T09:54:00.938Z,3.33
2023-08-20T09:56:30.471Z,2.95
2023-08-20T09:58:59.699Z,3.17
2023-08-20T10:01:29.573Z,3.45
2023-08-20T10:03:58.238Z,3.63
2023-08-20T10:06:26.830Z,3.40
2023-08-20T10:08:55.910Z,3.40
2023-08-20T10:11:23.771Z,3.70
2023-08-20T10:13:51.904Z,3.60
2023-08-20T10:16:22.057Z,3.30
2023-08-20T10:18:51.585Z,3.40
2023-08-20T10:21:19.286Z,2.92
2023-08-20T10:23:51.112Z,3.30
2023-08-20T10:26:19.970Z,3.20
2023-08-20T10:28:47.636Z,3.35
2023-08-20T10:31:18.332Z,3.67
2023-08-20T10:33:56.142Z,3.63
2023-08-20T10:36:29.001Z,3.58
2023-08-20T10:38:58.022Z,3.78
2023-08-20T10:41:29.679Z,3.50
2023-08-20T10:43:59.998Z,3.42
2023-08-20T10:46:31.166Z,3.42
2023-08-20T10:49:01.234Z,3.15
2023-08-20T10:51:30.187Z,3.75
2023-08-20T10:54:08.884Z,3.42
2023-08-20T10:56:41.894Z,3.35
2023-08-20T10:59:10.891Z,3.70
2023-08-20T11:01:39.489Z,3.78
2023-08-20T11:04:09.368Z,3.60
2023-08-20T11:06:37.097Z,3.67
2023-08-20T11:09:06.735Z,3.50
2023-08-20T11:11:34.781Z,3.60
2023-08-20T11:14:08.823Z,3.40
2023-08-20T11:16:37.338Z,3.55
2023-08-20T11:19:09.565Z,3.67
2023-08-20T11:21:40.567Z,3.90
2023-08-20T11:24:08.978Z,3.40
2023-08-20T11:26:37.770Z,3.03
2023-08-20T11:29:07.778Z,3.47
2023-08-20T11:31:35.502Z,3.85
2023-08-20T11:34:04.058Z,3.58
2023-08-20T11:36:32.316Z,3.30
2023-08-20T11:39:01.518Z,3.17
2023-08-20T11:41:29.511Z,3.70
2023-08-20T11:43:57.348Z,3.58
2023-08-20T11:46:26.189Z,3.78
2023-08-20T11:49:05.392Z,3.30
2023-08-20T11:51:38.855Z,3.63
2023-08-20T11:54:09.903Z,3.55
2023-08-20T11:56:39.702Z,3.40
2023-08-20T11:59:07.454Z,3.40
2023-08-20T12:01:35.268Z,3.25
2023-08-20T12:04:04.050Z,3.15
2023-08-20T12:06:32.524Z,3.60
2023-08-20T12:09:00.489Z,3.50
2023-08-20T12:11:30.375Z,3.22
2023-08-20T12:13:58.743Z,3.10
2023-08-20T12:16:26.962Z,3.33
2023-08-20T12:18:55.034Z,3.60
2023-08-20T12:21:22.731Z,3.30
2023-08-20T12:23:50.710Z,3.45
2023-08-20T12:26:19.217Z,3.10
2023-08-20T12:28:48.286Z,3.85
2023-08-20T12:31:16.712Z,3.10
2023-08-20T12:33:44.445Z,3.35
2023-08-20T12:36:12.119Z,2.95
2023-08-20T12:38:39.919Z,3.20
2023-08-20T12:41:07.670Z,3.05
2023-08-20T12:43:35.432Z,2.90
2023-08-20T12:46:04.626Z,2.80
2023-08-20T12:48:32.414Z,3.25
2023-08-20T12:51:00.383Z,3.00
2023-08-20T12:53:28.170Z,2.97
2023-08-20T12:55:55.931Z,3.35
2023-08-20T12:58:25.089Z,3.33
2023-08-20T13:00:52.786Z,3.15
2023-08-20T13:03:22.471Z,3.33
2023-08-20T13:05:50.702Z,3.30
2023-08-20T13:08:18.962Z,3.90
2023-08-20T13:10:52.481Z,3.40
2023-08-20T13:13:22.921Z,3.15
2023-08-20T13:15:51.346Z,3.22
2023-08-20T13:18:25.741Z,3.90
2023-08-20T13:20:54.622Z,3.00
2023-08-20T13:23:22.511Z,2.97
2023-08-20T13:25:50.174Z,3.35
2023-08-20T13:28:18.972Z,3.35
2023-08-20T13:30:46.800Z,3.30
2023-08-20T13:33:14.844Z,3.20
2023-08-20T13:35:44.068Z,3.03
2023-08-20T13:38:11.958Z,3.30
2023-08-20T13:40:39.678Z,3.00
2023-08-20T13:43:07.400Z,3.17
2023-08-20T13:45:35.091Z,2.97
2023-08-20T13:48:02.871Z,3.22
2023-08-20T13:50:31.026Z,3.30
2023-08-20T13:53:01.660Z,3.40
2023-08-20T13:55:32.149Z,3.35
2023-08-20T13:57:59.886Z,4.85
2023-08-20T14:00:27.694Z,3.78
2023-08-20T14:02:55.514Z,3.20
2023-08-20T14:05:23.274Z,3.00
2023-08-20T14:07:50.938Z,3.28
2023-08-20T14:10:19.959Z,3.25
2023-08-20T14:12:47.643Z,2.95
2023-08-20T14:15:15.844Z,3.17
2023-08-20T14:17:43.553Z,3.38
2023-08-20T14:20:12.619Z,2.72
2023-08-20T14:22:40.589Z,3.08
2023-08-20T14:25:09.249Z,3.38
2023-08-20T14:27:38.400Z,3.05
2023-08-20T14:30:08.979Z,2.90
2023-08-20T14:32:40.053Z,2.92
2023-08-20T14:35:09.261Z,3.65
2023-08-20T14:37:36.903Z,3.03
2023-08-20T14:40:07.640Z,2.80
2023-08-20T14:42:35.894Z,2.85
2023-08-20T14:45:06.402Z,3.05
2023-08-20T14:47:34.145Z,3.00
2023-08-20T14:50:01.906Z,2.53
2023-08-20T14:52:29.611Z,3.05
2023-08-20T14:54:57.293Z,2.80
2023-08-20T14:57:26.330Z,2.60
2023-08-20T14:59:59.437Z,2.85
2023-08-20T15:02:28.641Z,2.60
2023-08-20T15:04:56.374Z,2.70
2023-08-20T15:07:24.845Z,3.00
2023-08-20T15:09:52.637Z,2.40
2023-08-20T15:12:20.450Z,2.90
2023-08-20T15:14:48.095Z,2.65
2023-08-20T15:17:15.741Z,2.55
2023-08-20T15:19:45.075Z,2.85
2023-08-20T15:22:13.181Z,2.40
2023-08-20T15:24:40.797Z,2.95
2023-08-20T15:27:08.888Z,2.70
2023-08-20T15:29:39.092Z,2.75
2023-08-20T15:32:07.186Z,2.60
2023-08-20T15:34:34.851Z,2.60
2023-08-20T15:37:04.875Z,2.60
2023-08-20T15:39:34.969Z,2.50
2023-08-20T15:42:02.901Z,2.60
2023-08-20T15:44:30.620Z,2.42
2023-08-20T15:46:58.359Z,2.53
2023-08-20T15:49:28.257Z,2.63
2023-08-20T15:51:56.024Z,2.40
2023-08-20T15:54:26.626Z,2.20
2023-08-20T15:56:54.679Z,1.83
2023-08-20T15:59:22.613Z,2.60
2023-08-20T16:01:50.660Z,2.00
2023-08-20T16:04:18.405Z,2.35
2023-08-20T16:06:46.174Z,2.20
2023-08-20T16:09:13.926Z,2.13
2023-08-20T16:11:42.992Z,1.70
2023-08-20T16:14:11.357Z,2.00
2023-08-20T16:16:39.633Z,2.30
2023-08-20T16:19:07.395Z,2.35
2023-08-20T16:21:35.429Z,2.03
2023-08-20T16:24:05.272Z,2.20
2023-08-20T16:26:34.832Z,2.30
2023-08-20T16:29:04.524Z,2.33
2023-08-20T16:31:32.415Z,2.10
2023-08-20T16:34:00.078Z,2.20
2023-08-20T16:36:27.760Z,2.22
2023-08-20T16:38:55.705Z,1.80
2023-08-20T16:41:23.404Z,2.42
2023-08-20T16:43:51.138Z,2.22
2023-08-20T16:46:20.175Z,2.00
2023-08-20T16:48:47.857Z,1.67
2023-08-20T16:51:15.564Z,2.20
2023-08-20T16:53:43.274Z,1.85
2023-08-20T16:56:10.976Z,2.03
2023-08-20T16:58:38.679Z,2.33
2023-08-20T17:01:06.896Z,2.30
2023-08-20T17:03:35.933Z,2.55
2023-08-20T17:06:05.334Z,2.20
2023-08-20T17:08:33.224Z,2.45
2023-08-20T17:11:07.874Z,2.10
2023-08-20T17:13:36.831Z,2.00
2023-08-20T17:16:05.636Z,2.30
2023-08-20T17:18:33.892Z,2.95
2023-08-20T17:21:03.636Z,2.50
2023-08-20T17:23:33.415Z,2.47
2023-08-20T17:26:01.188Z,2.70
2023-08-20T17:28:29.160Z,2.17
2023-08-20T17:30:57.076Z,2.08
2023-08-20T17:33:25.187Z,2.25
2023-08-20T17:35:52.878Z,2.08
2023-08-20T17:38:23.084Z,2.33
2023-08-20T17:40:50.773Z,2.42
2023-08-20T17:43:18.638Z,2.10
2023-08-20T17:45:46.395Z,2.30
2023-08-20T17:48:16.100Z,2.20
2023-08-20T17:50:44.082Z,2.28
2023-08-20T17:53:11.791Z,2.45
2023-08-20T17:55:40.858Z,2.47
2023-08-20T17:58:08.975Z,2.33
2023-08-20T18:00:36.659Z,2.28
2023-08-20T18:03:05.148Z,2.20
2023-08-20T18:05:33.338Z,2.38
2023-08-20T18:08:02.177Z,2.47
2023-08-20T18:10:29.962Z,2.40
2023-08-20T18:12:59.513Z,2.33
2023-08-20T18:15:28.071Z,2.63
2023-08-20T18:17:55.929Z,2.35
2023-08-20T18:20:24.074Z,2.30
2023-08-20T18:22:51.715Z,2.10
2023-08-20T18:25:19.463Z,2.33
2023-08-20T18:27:47.229Z,2.53
2023-08-20T18:30:17.477Z,2.40
2023-08-20T18:32:45.114Z,2.70
2023-08-20T18:35:13.162Z,2.72
2023-08-20T18:37:40.909Z,2.17
2023-08-20T18:40:11.552Z,2.80
2023-08-20T18:42:39.964Z,2.95
2023-08-20T18:45:09.313Z,2.38
2023-08-20T18:47:38.468Z,2.50
2023-08-20T18:50:07.189Z,2.60
2023-08-20T18:52:35.127Z,2.45
2023-08-20T18:55:03.145Z,2.88
2023-08-20T18:57:30.795Z,2.78
2023-08-20T19:00:00.327Z,2.40
2023-08-20T19:02:28.121Z,2.35
2023-08-20T19:04:57.455Z,2.40
2023-08-20T19:07:26.497Z,2.60
2023-08-20T19:09:56.398Z,2.90
2023-08-20T19:12:24.051Z,2.90
2023-08-20T19:14:51.914Z,2.63
2023-08-20T19:17:19.560Z,2.95
2023-08-20T19:19:47.231Z,2.90
2023-08-20T19:22:17.164Z,2.95
2023-08-20T19:24:44.827Z,2.72
2023-08-20T19:27:12.897Z,2.85
2023-08-20T19:29:40.581Z,2.85
2023-08-20T19:32:08.416Z,3.15
2023-08-20T19:34:36.096Z,2.88
2023-08-20T19:37:04.680Z,2.47
2023-08-20T19:39:33.757Z,2.17
2023-08-20T19:42:02.542Z,2.40
2023-08-20T19:44:30.252Z,2.95
2023-08-20T19:46:57.980Z,3.05
2023-08-20T19:49:25.653Z,2.10
2023-08-20T19:51:53.342Z,2.60
2023-08-20T19:54:22.457Z,2.50
2023-08-20T19:56:51.800Z,2.65
2023-08-20T19:59:19.910Z,2.72
2023-08-20T20:01:48.690Z,2.50
2023-08-20T20:04:17.093Z,2.53
2023-08-20T20:06:45.250Z,2.85
2023-08-20T20:09:13.499Z,2.60
2023-08-20T20:11:41.170Z,2.90
2023-08-20T20:14:10.257Z,2.70
2023-08-20T20:16:38.219Z,3.10
2023-08-20T20:19:05.921Z,2.95
2023-08-20T20:21:33.601Z,2.63
2023-08-20T20:24:01.336Z,3.00
2023-08-20T20:26:28.967Z,2.97
2023-08-20T20:28:57.351Z,2.53
2023-08-20T20:31:26.658Z,2.90
2023-08-20T20:33:54.409Z,2.60
2023-08-20T20:36:22.087Z,3.13
2023-08-20T20:38:49.899Z,2.70
2023-08-20T20:41:17.878Z,2.95
2023-08-20T20:43:45.650Z,2.95
2023-08-20T20:46:13.357Z,2.80
2023-08-20T20:48:42.382Z,3.20
2023-08-20T20:51:10.054Z,2.97
2023-08-20T20:53:37.708Z,3.15
2023-08-20T20:56:05.735Z,2.85
2023-08-20T20:58:33.476Z,2.85
2023-08-20T21:01:01.244Z,2.78
2023-08-20T21:03:28.961Z,2.70
2023-08-20T21:05:57.958Z,2.70
2023-08-20T21:08:25.874Z,3.53
2023-08-20T21:10:53.534Z,2.95
2023-08-20T21:13:21.653Z,2.83
2023-08-20T21:15:49.319Z,2.67
2023-08-20T21:18:17.066Z,2.78
2023-08-20T21:20:44.793Z,2.58
2023-08-20T21:23:13.823Z,2.88
2023-08-20T21:25:41.943Z,2.75
2023-08-20T21:28:09.652Z,2.72
2023-08-20T21:30:37.323Z,2.90
2023-08-20T21:33:05.311Z,2.80
2023-08-20T21:35:32.981Z,3.25
2023-08-20T21:38:00.640Z,2.90
2023-08-20T21:40:29.815Z,2.95
2023-08-20T21:42:57.541Z,3.13
2023-08-20T21:45:25.201Z,2.70
2023-08-20T21:47:52.957Z,3.13
2023-08-20T21:50:20.662Z,3.00
2023-08-20T21:52:48.348Z,3.45
2023-08-20T21:55:16.345Z,3.80
2023-08-20T21:57:46.759Z,3.70
2023-08-20T22:00:16.599Z,3.08
2023-08-20T22:02:45.370Z,3.40
2023-08-20T22:05:14.349Z,3.08
2023-08-20T22:07:44.432Z,3.33
2023-08-20T22:10:12.874Z,3.85
2023-08-20T22:12:41.073Z,2.78
2023-08-20T22:15:11.813Z,3.00
2023-08-20T22:17:39.813Z,3.33
2023-08-20T22:20:11.068Z,3.35
2023-08-20T22:22:39.725Z,3.50
2023-08-20T22:25:08.782Z,3.72
2023-08-20T22:27:37.179Z,3.22
2023-08-20T22:30:05.854Z,3.40
2023-08-20T22:32:35.452Z,3.28
2023-08-20T22:35:03.465Z,3.17
2023-08-20T22:37:31.241Z,3.38
2023-08-20T22:39:58.906Z,3.22
2023-08-20T22:42:26.523Z,2.70
2023-08-20T22:44:54.189Z,3.15
2023-08-20T22:47:22.189Z,2.92
2023-08-20T22:49:51.440Z,2.95
2023-08-20T22:52:19.161Z,3.00
2023-08-20T22:54:46.824Z,3.25
2023-08-20T22:57:14.484Z,3.08
2023-08-20T22:59:42.197Z,3.42
2023-08-20T23:02:09.908Z,3.35
2023-08-20T23:04:37.659Z,3.50
2023-08-20T23:07:06.904Z,3.10
2023-08-20T23:09:34.555Z,3.17
2023-08-20T23:12:02.251Z,3.58
2023-08-20T23:14:29.967Z,3.00
2023-08-20T23:16:57.832Z,3.53
2023-08-20T23:19:26.882Z,3.35
2023-08-20T23:21:54.542Z,3.30
2023-08-20T23:24:23.640Z,3.10
2023-08-20T23:26:51.315Z,3.30
2023-08-20T23:29:18.980Z,3.50
2023-08-20T23:31:47.127Z,3.20
2023-08-20T23:34:14.814Z,3.28
2023-08-20T23:36:42.629Z,3.22
2023-08-20T23:39:10.284Z,3.33
2023-08-20T23:41:39.274Z,2.80
2023-08-20T23:44:06.918Z,3.30
2023-08-20T23:46:47.200Z,3.00
2023-08-20T23:49:15.791Z,3.40
2023-08-20T23:51:43.547Z,3.13
2023-08-20T23:54:11.249Z,3.28
2023-08-20T23:56:40.326Z,3.22
2023-08-20T23:59:08.208Z,3.00
